SLSA4: ILLINOIS RIVER AT HIGHWAY 16 BRIDGE NR SILOAM SPRINGS 4SE

                                SHEF ID:       SLSA4     Illinois River at Hwy. 16 near S
STATION TYPE:

PRECIP STAGE RIV-FLOW BAT-LOAD
in ft cfs volt
Ccp-Rev Ccp-Rev Ccp-Rev Ccp-Rev
(America/Chicago)
04/29 00:00 0.00 8.20 1322 12.53
04/29 01:00 0.00 8.28 1394 12.49
04/29 02:00 0.00 8.93 1980 12.46
04/29 03:00 0.00 10.28 3308 12.44
04/29 04:00 0.00 11.12 4195 12.42
04/29 05:00 0.01 11.39 4501 12.40
04/29 06:00 0.00 11.20 4285 12.39
04/29 07:00 0.00 10.78 3824 12.37
04/29 08:00 0.00 10.39 3419 12.43
04/29 09:00 0.00 9.96 2962 12.73
04/29 10:00 0.00 9.69 2685 13.38
04/29 11:00 0.00 9.49 2488 13.63
04/29 12:00 0.01 9.32 2328 13.54
04/29 13:00 0.00 9.18 2199 -999.90
04/29 14:00 0.00 9.05 2084 13.18
04/29 15:00 0.00 8.95 1997 13.06
04/29 16:00 0.00 8.87 1929 12.94
04/29 17:00 0.00 8.79 1863 12.93
04/29 18:00 0.01 8.72 1805 12.90
04/29 19:00 0.00 8.65 1749 12.88
04/29 20:00 0.00 8.59 1696 12.85
04/29 21:00 0.00 8.54 1644 12.67
04/29 22:00 0.00 8.49 1594 12.60
04/29 23:00 0.00 8.43 1535 12.57
Data processed at Thu 30Apr2026 04:14 GMT

NOTICE: If you are parsing this page

Please convert to using our Data API. Starting early 2026 we will be migrating to: https://water.usace.army.mil with modern pages rendered in JavaScript. When this migration completes you will no longer be able to scrape this page! CWMSDataAPI (CDA)

Timeseries IDs (TSIDs)

TSIDs used from left to right in the data table
SILS.Precip-Inc.Total.1Hour.1Hour.Ccp-Rev
SILS.Stage.Inst.1Hour.0.Ccp-Rev
SILS.Flow.Inst.1Hour.0.Ccp-Rev
SILS.Volt-Battery Load.Inst.1Hour.0.Ccp-Rev

                            

All information presented herein is the property of the government of the United States of America and may be revised or deleted at any time without prior notice. Dissemination of this information without the expressed written consent of the Public Affairs Office, Tulsa District U.S. Army Corps of Engineers is strictly prohibited. These data are gathered electronically and, as presented, have NOT undergone any form of quality control. These data are NOT guaranteed to be valid or correct.